Flight Track Log - Related Links

Times and Time Zones

All times are in EDT time to prevent confusion due to time zone crossing. See the TSU215 flight status page for this flight to view local times or setup timezone preferences in your user account.

Time Position Orientation Groundspeed Altitude Reporting Facility
EDT Latitude Longitude Course Direction KTS MPH feet Rate Location/Type
Sun 03:04:30 AM 31.8006 -106.3933 220° Southwest 163 188 4,600  Level Albuquerque Center
Sun 03:05:07 AM 31.7806 -106.4131 220° Southwest 172 198 6,200 2,103 Climbing Albuquerque Center
Sun 03:06:07 AM 31.7358 -106.4367 204° Southwest 199 229 8,000 1,606 Climbing Albuquerque Center
Sun 03:07:14 AM 31.7436 -106.5003 278° West 228 262 9,600 1,843 Climbing Albuquerque Center
Sun 03:08:14 AM 31.7894 -106.5908 301° West 296 341 11,900 2,182 Climbing Albuquerque Center
Sun 03:09:15 AM 31.8100 -106.7056 282° West 358 412 14,000 2,430 Climbing Albuquerque Center
Sun 03:10:15 AM 31.8381 -106.8322 285° West 399 459 16,800 3,174 Climbing Albuquerque Center
Sun 03:11:16 AM 31.8611 -106.9633 282° West 408 470 20,400 3,174 Climbing Albuquerque Center
Sun 03:12:16 AM 31.8825 -107.0950 281° West 408 470 23,200 2,700 Climbing Albuquerque Center
Sun 03:13:16 AM 31.9100 -107.2294 284° West 418 481 25,800 2,479 Climbing Albuquerque Center
Sun 03:14:17 AM 31.8439 -107.3422 235° Southwest 421 484 28,200 2,361 Climbing Albuquerque Center
Sun 03:16:00 AM 31.6814 -107.4377 207° Southwest  Level Estimated
Sun 03:23:00 AM 31.0182 -107.8235 207° Southwest  Level Estimated
Sun 03:24:00 AM 30.9233 -107.8782 206° Southwest  Level Estimated
Sun 03:25:00 AM 30.8284 -107.9327 206° Southwest  Level Estimated
Sun 03:26:00 AM 30.7335 -107.9872 206° Southwest  Level Estimated
Sun 03:27:00 AM 30.6386 -108.0415 206° Southwest  Level Estimated
Sun 03:28:00 AM 30.5437 -108.0958 206° Southwest  Level Estimated
Sun 03:29:00 AM 30.4487 -108.1499 206° Southwest  Level Estimated
Sun 03:30:00 AM 30.3538 -108.2039 206° Southwest  Level Estimated
Sun 03:31:00 AM 30.2588 -108.2579 206° Southwest  Level Estimated
Sun 03:32:00 AM 30.1637 -108.3117 206° Southwest  Level Estimated
Sun 03:33:00 AM 30.0687 -108.3654 206° Southwest  Level Estimated
Sun 03:34:00 AM 29.9736 -108.4190 206° Southwest  Level Estimated
Sun 03:35:00 AM 29.8785 -108.4726 206° Southwest  Level Estimated
Sun 03:36:00 AM 29.7834 -108.5260 206° Southwest  Level Estimated
Sun 03:37:00 AM 29.6883 -108.5793 206° Southwest  Level Estimated
Sun 03:38:00 AM 29.5931 -108.6325 206° Southwest  Level Estimated
Sun 03:39:00 AM 29.4979 -108.6856 206° Southwest  Level Estimated
Sun 03:40:00 AM 29.4027 -108.7386 206° Southwest  Level Estimated
Sun 03:41:00 AM 29.3075 -108.7915 206° Southwest  Level Estimated
Sun 03:42:00 AM 29.2123 -108.8443 206° Southwest  Level Estimated
Sun 03:43:00 AM 29.1170 -108.8970 206° Southwest  Level Estimated
Sun 03:44:00 AM 29.0217 -108.9497 206° Southwest  Level Estimated
Sun 03:45:00 AM 28.9264 -109.0022 206° Southwest  Level Estimated
Sun 03:46:00 AM 28.8311 -109.0546 206° Southwest  Level Estimated
Sun 03:47:00 AM 28.7358 -109.1069 206° Southwest  Level Estimated
Sun 03:48:00 AM 28.6404 -109.1592 206° Southwest  Level Estimated
Sun 03:49:00 AM 28.5450 -109.2113 206° Southwest  Level Estimated
Sun 03:50:00 AM 28.4496 -109.2634 206° Southwest  Level Estimated
Sun 03:51:00 AM 28.3542 -109.3153 206° Southwest  Level Estimated
Sun 03:52:00 AM 28.2588 -109.3672 206° Southwest  Level Estimated
Sun 03:53:00 AM 28.1633 -109.4189 206° Southwest  Level Estimated
Sun 03:54:00 AM 28.0678 -109.4706 206° Southwest  Level Estimated
Sun 03:55:00 AM 27.9723 -109.5222 206° Southwest  Level Estimated
Sun 03:56:00 AM 27.8768 -109.5737 205° Southwest  Level Estimated
Sun 03:57:00 AM 27.7813 -109.6251 205° Southwest  Level Estimated
Sun 03:58:00 AM 27.6857 -109.6764 205° Southwest  Level Estimated
Sun 03:59:00 AM 27.5901 -109.7276 205° Southwest  Level Estimated
Sun 04:00:00 AM 27.4946 -109.7787 205° Southwest  Level Estimated
Sun 04:01:00 AM 27.3989 -109.8298 205° Southwest  Level Estimated
Sun 04:02:00 AM 27.3926 -109.8331 205° Southwest  Level Estimated
Sun 04:03:00 AM 27.3926 -109.8331 222° Southwest  Level Estimated
Sun 04:04:00 AM 27.3926 -109.8331 222° Southwest  Level Estimated
Sun 04:05:00 AM 27.3926 -109.8331 222° Southwest  Level Estimated
Sun 04:06:00 AM 27.3926 -109.8331 222° Southwest  Level Estimated
Sun 04:07:00 AM 27.3926 -109.8331 222° Southwest  Level Estimated
Sun 04:08:00 AM 27.3926 -109.8331 222° Southwest  Level Estimated
Sun 04:09:00 AM 27.3926 -109.8331 222° Southwest  Level Estimated
Sun 04:10:00 AM 27.3926 -109.8331 222° Southwest  Level Estimated
Sun 04:11:00 AM 27.3926 -109.8331 222° Southwest  Level Estimated
Sun 04:12:00 AM 27.3926 -109.8331 222° Southwest  Level Estimated
Sun 04:13:00 AM 27.3926 -109.8331 222° Southwest  Level Estimated
Sun 04:14:00 AM 27.3926 -109.8331 222° Southwest  Level Estimated
Sun 04:15:00 AM 27.3926 -109.8331 222° Southwest  Level Estimated
Sun 04:16:00 AM 27.3926 -109.8331 222° Southwest  Level Estimated
Sun 04:17:00 AM 27.3926 -109.8331 222° Southwest  Level Estimated
Sun 04:18:00 AM 27.3926 -109.8331 222° Southwest  Level Estimated
Sun 04:19:00 AM 27.3926 -109.8331 222° Southwest  Level Estimated
Sun 04:20:00 AM 27.3926 -109.8331 222° Southwest  Level Estimated
Sun 04:21:00 AM 27.3926 -109.8331 222° Southwest  Level Estimated
Sun 04:22:00 AM 27.3926 -109.8331 222° Southwest  Level Estimated
Sun 04:23:00 AM 27.3926 -109.8331 222° Southwest  Level Estimated
Sun 04:24:00 AM 27.3926 -109.8331 222° Southwest  Level Estimated
Sun 04:25:00 AM 27.3926 -109.8331 222° Southwest  Level Estimated
Sun 04:26:00 AM 27.3926 -109.8331 222° Southwest  Level Estimated

Login

Don't have an account? Register now (free) for customized features, flight alerts, and more!